Time;durP1;ratioP1;P1;durP2;ratioP2;P2;SDS_P1;SDS_P2;PMS_P1;PMS_P2;Temp;Humidity;BMP_temperature;BMP_pressure;BME280_temperature;BME280_humidity;BME280_pressure;Samples;Min_cycle;Max_cycle;Signal;HPM_P1;HPM_P2
2022/10/03 00:00:16;;;;;;;2.37;0.80;;;23.30;94.70;;;;;;5093644;28;20223;-72
2022/10/03 00:03:10;;;;;;;2.17;0.90;;;23.40;91.70;;;;;;5081661;28;20652;-72
2022/10/03 00:05:50;;;;;;;1.60;0.90;;;23.50;91.30;;;;;;5073864;28;20237;-71
2022/10/03 00:08:42;;;;;;;1.80;0.70;;;24.10;91.90;;;;;;5068679;28;20198;-72
2022/10/03 00:11:44;;;;;;;4.40;0.73;;;24.50;83.60;;;;;;5093950;28;20722;-71
2022/10/03 00:14:23;;;;;;;1.20;0.80;;;24.70;80.80;;;;;;5073833;28;20178;-70
2022/10/03 00:17:12;;;;;;;1.73;0.83;;;25.00;73.60;;;;;;5073654;28;20206;-72
2022/10/03 00:20:05;;;;;;;1.60;0.70;;;25.20;73.70;;;;;;5073710;28;20168;-72
2022/10/03 00:22:56;;;;;;;1.10;0.60;;;25.20;68.80;;;;;;5072121;28;20203;-72
2022/10/03 00:25:38;;;;;;;1.27;0.83;;;24.50;68.40;;;;;;5072870;28;20679;-72
2022/10/03 00:28:15;;;;;;;2.13;0.60;;;24.70;70.60;;;;;;5055429;28;20607;-72
2022/10/03 00:31:02;;;;;;;0.53;0.53;;;24.70;80.20;;;;;;5073430;28;20183;-72
2022/10/03 00:34:00;;;;;;;1.97;0.90;;;24.00;78.60;;;;;;5060186;28;20204;-72
2022/10/03 00:36:41;;;;;;;1.20;0.60;;;23.20;85.20;;;;;;5073220;28;20577;-72
2022/10/03 00:39:31;;;;;;;1.07;0.60;;;24.50;74.40;;;;;;5073090;28;20692;-71
2022/10/03 00:42:23;;;;;;;0.50;0.50;;;25.40;70.70;;;;;;5079686;28;20302;-70
2022/10/03 00:45:28;;;;;;;1.93;0.77;;;26.00;62.20;;;;;;5093366;28;20172;-71
2022/10/03 00:48:30;;;;;;;0.57;0.57;;;25.10;61.90;;;;;;5069523;28;20191;-71
2022/10/03 00:51:28;;;;;;;1.53;0.60;;;23.90;81.80;;;;;;5070539;28;20531;-71
2022/10/03 00:54:08;;;;;;;1.67;0.67;;;24.20;90.90;;;;;;5092657;28;20190;-72
2022/10/03 00:56:35;;;;;;;1.47;0.60;;;24.80;75.90;;;;;;5091110;28;20179;-71
2022/10/03 00:59:31;;;;;;;1.30;0.50;;;25.30;76.30;;;;;;5095314;28;20231;-71
2022/10/03 01:02:16;;;;;;;1.97;0.77;;;25.40;63.80;;;;;;5100733;28;20210;-71
2022/10/03 01:04:46;;;;;;;2.20;0.60;;;25.70;66.60;;;;;;5100924;28;20179;-70
2022/10/03 01:07:47;;;;;;;1.27;0.70;;;25.40;57.90;;;;;;5092497;28;20626;-70
2022/10/03 01:10:32;;;;;;;1.43;0.70;;;25.30;54.00;;;;;;5092420;28;20185;-72
2022/10/03 01:13:25;;;;;;;1.30;0.73;;;25.90;68.80;;;;;;5092087;28;20186;-72
2022/10/03 01:16:06;;;;;;;1.03;0.50;;;25.70;56.20;;;;;;5085470;28;20188;-72
2022/10/03 01:18:43;;;;;;;2.00;0.50;;;25.70;60.00;;;;;;5084081;28;20926;-71
2022/10/03 01:21:32;;;;;;;2.30;0.83;;;26.30;60.50;;;;;;5072334;28;20294;-72
2022/10/03 01:24:23;;;;;;;0.67;0.60;;;26.30;58.40;;;;;;5072507;28;20253;-72
2022/10/03 01:27:10;;;;;;;1.60;0.70;;;25.90;56.90;;;;;;5011699;28;20278;-71
2022/10/03 01:32:34;;;;;;;3.40;0.93;;;26.10;54.20;;;;;;5089885;28;20241;-72
2022/10/03 01:35:31;;;;;;;2.30;0.70;;;24.60;53.20;;;;;;5091800;28;20179;-72
2022/10/03 01:38:25;;;;;;;1.17;0.70;;;23.80;57.50;;;;;;5092419;28;20691;-72
2022/10/03 01:40:55;;;;;;;2.93;1.00;;;23.80;57.60;;;;;;5092277;28;20286;-72
2022/10/03 01:43:45;;;;;;;1.30;0.70;;;24.40;55.30;;;;;;5092196;28;20175;-72
2022/10/03 01:46:31;;;;;;;1.27;0.70;;;24.30;56.90;;;;;;5088349;28;20183;-72
2022/10/03 01:49:22;;;;;;;1.17;0.70;;;24.00;61.40;;;;;;5092281;28;20178;-73
2022/10/03 01:52:07;;;;;;;1.87;0.63;;;25.10;51.10;;;;;;5092620;28;20169;-72
2022/10/03 01:54:50;;;;;;;1.27;0.67;;;25.40;52.80;;;;;;5092063;28;20179;-72
2022/10/03 01:57:54;;;;;;;1.83;0.60;;;25.90;50.80;;;;;;5073204;28;20663;-72
2022/10/03 02:00:30;;;;;;;2.30;0.70;;;26.50;53.40;;;;;;5071589;28;20258;-71
2022/10/03 02:03:16;;;;;;;1.80;0.80;;;26.80;48.60;;;;;;5071812;28;20176;-72
2022/10/03 02:06:09;;;;;;;1.50;0.60;;;26.00;48.50;;;;;;5078585;28;20182;-71
2022/10/03 02:09:18;;;;;;;0.97;0.63;;;25.50;49.40;;;;;;5091889;28;20179;-71
2022/10/03 02:12:02;;;;;;;3.77;1.00;;;25.20;49.00;;;;;;5078621;28;20187;-72
2022/10/03 02:14:35;;;;;;;0.97;0.63;;;25.40;54.40;;;;;;5071308;28;20245;-71
2022/10/03 02:17:06;;;;;;;3.33;0.90;;;24.70;47.80;;;;;;5071533;28;20668;-71
2022/10/03 02:19:57;;;;;;;0.67;0.60;;;24.40;52.30;;;;;;5090604;28;20599;-72
2022/10/03 02:22:37;;;;;;;2.93;0.53;;;23.60;51.00;;;;;;5086401;28;20571;-71
2022/10/03 02:25:19;;;;;;;1.70;0.77;;;23.30;54.40;;;;;;5070836;28;20176;-71
2022/10/03 02:28:05;;;;;;;2.17;0.87;;;23.70;55.10;;;;;;5087151;28;20194;-71
2022/10/03 02:30:56;;;;;;;4.83;1.03;;;23.40;55.10;;;;;;5091768;28;20182;-71
2022/10/03 02:33:43;;;;;;;2.17;0.80;;;23.00;55.80;;;;;;5078176;28;20205;-71
2022/10/03 02:36:31;;;;;;;3.67;0.90;;;22.80;65.70;;;;;;5071348;28;20190;-72
2022/10/03 02:39:10;;;;;;;1.57;0.80;;;22.90;64.10;;;;;;5071288;28;20165;-72
2022/10/03 02:41:51;;;;;;;2.10;1.00;;;22.70;63.20;;;;;;5071155;28;20211;-72
2022/10/03 02:44:53;;;;;;;1.60;0.87;;;22.50;60.50;;;;;;5091014;28;20676;-73
2022/10/03 02:47:44;;;;;;;2.67;0.93;;;22.70;63.70;;;;;;5059903;28;20187;-71
2022/10/03 02:50:27;;;;;;;2.40;1.03;;;22.20;63.90;;;;;;5091485;28;20182;-72
2022/10/03 02:53:18;;;;;;;1.53;0.90;;;22.10;68.70;;;;;;5085059;28;20671;-71
2022/10/03 02:56:07;;;;;;;5.37;1.03;;;22.10;73.00;;;;;;5071081;28;20226;-72
2022/10/03 02:59:03;;;;;;;2.00;0.90;;;22.00;67.70;;;;;;5070915;28;20220;-72
2022/10/03 03:01:51;;;;;;;1.67;0.87;;;21.80;75.50;;;;;;5037434;28;20228;-71
2022/10/03 03:04:37;;;;;;;3.37;1.43;;;21.80;73.60;;;;;;5071030;28;20192;-71
2022/10/03 03:08:02;;;;;;;1.33;0.90;;;21.50;69.00;;;;;;5071118;28;20180;-71
2022/10/03 03:10:47;;;;;;;2.03;1.17;;;21.20;76.90;;;;;;5070276;28;20192;-72
2022/10/03 03:13:44;;;;;;;2.13;1.00;;;21.10;80.10;;;;;;5079047;28;20703;-72
2022/10/03 03:16:28;;;;;;;2.83;1.00;;;21.20;87.10;;;;;;5087974;28;20190;-70
2022/10/03 03:19:12;;;;;;;2.60;1.00;;;21.20;90.50;;;;;;5089164;28;20225;-70
2022/10/03 03:21:53;;;;;;;3.90;0.90;;;21.50;85.70;;;;;;5089232;28;20964;-71
2022/10/03 03:24:45;;;;;;;1.33;0.90;;;22.50;73.80;;;;;;5073223;28;20268;-71
2022/10/03 03:27:30;;;;;;;2.77;0.77;;;23.50;72.40;;;;;;5070883;28;20183;-72
2022/10/03 03:30:12;;;;;;;1.97;0.80;;;23.50;68.30;;;;;;5070708;28;20641;-72
2022/10/03 03:32:39;;;;;;;1.00;0.70;;;23.30;61.40;;;;;;5073935;28;20179;-72
2022/10/03 03:35:27;;;;;;;2.33;1.00;;;23.00;60.00;;;;;;5090932;28;20211;-70
2022/10/03 03:38:07;;;;;;;3.50;1.27;;;22.90;63.40;;;;;;5094610;28;20212;-71
2022/10/03 03:40:38;;;;;;;3.07;0.93;;;23.10;69.90;;;;;;5094219;28;20202;-71
2022/10/03 03:43:20;;;;;;;1.10;0.73;;;23.40;66.70;;;;;;5088082;28;20259;-71
2022/10/03 03:46:09;;;;;;;3.10;1.00;;;23.40;65.80;;;;;;5074112;28;20172;-70
2022/10/03 03:49:14;;;;;;;0.80;0.80;;;23.60;59.80;;;;;;5077217;28;20300;-70
2022/10/03 03:52:12;;;;;;;0.93;0.63;;;23.90;63.30;;;;;;5093992;28;20181;-70
2022/10/03 03:54:47;;;;;;;1.10;0.80;;;23.80;60.10;;;;;;5056496;28;20219;-72
2022/10/03 03:57:32;;;;;;;1.93;0.87;;;23.60;61.90;;;;;;5073813;28;20208;-69
2022/10/03 04:00:05;;;;;;;3.90;1.00;;;23.40;57.00;;;;;;5073847;28;20306;-72
2022/10/03 04:02:52;;;;;;;3.90;1.00;;;23.60;59.30;;;;;;5075034;28;20282;-71
2022/10/03 04:05:52;;;;;;;2.83;0.80;;;23.90;60.50;;;;;;5094159;28;20206;-71
2022/10/03 04:08:58;;;;;;;1.77;1.03;;;23.30;59.00;;;;;;5094093;28;20266;-71
2022/10/03 04:11:36;;;;;;;3.60;1.07;;;23.30;56.50;;;;;;5093867;28;20257;-71
2022/10/03 04:14:22;;;;;;;1.07;0.93;;;23.20;63.60;;;;;;5079451;28;20183;-72
2022/10/03 04:20:14;;;;;;;0.97;0.70;;;23.10;58.00;;;;;;5093455;28;20535;-71
2022/10/03 04:23:06;;;;;;;1.23;0.80;;;23.30;58.00;;;;;;5074727;28;20658;-71
2022/10/03 04:25:43;;;;;;;1.10;0.70;;;23.60;58.20;;;;;;5075281;28;20189;-71
2022/10/03 04:28:49;;;;;;;1.77;1.10;;;23.90;54.90;;;;;;5093714;28;20194;-71
2022/10/03 04:31:48;;;;;;;2.20;0.70;;;23.80;55.80;;;;;;5093825;28;20179;-73
2022/10/03 04:34:15;;;;;;;3.00;1.00;;;23.40;54.90;;;;;;5092567;28;20185;-72
2022/10/03 04:36:56;;;;;;;2.87;1.10;;;23.20;54.40;;;;;;5093401;28;20213;-71
2022/10/03 04:39:45;;;;;;;2.17;0.90;;;22.80;54.50;;;;;;5093186;28;20240;-71
2022/10/03 04:42:44;;;;;;;1.33;1.00;;;22.40;54.70;;;;;;5065822;28;20269;-71
2022/10/03 04:45:37;;;;;;;2.17;1.10;;;22.40;55.70;;;;;;5073066;28;20182;-72
2022/10/03 04:48:27;;;;;;;2.10;1.17;;;22.80;57.00;;;;;;5021469;28;20198;-72
2022/10/03 04:51:23;;;;;;;2.63;1.00;;;22.90;58.30;;;;;;5072870;28;20168;-72
2022/10/03 04:54:01;;;;;;;1.70;0.90;;;22.70;59.70;;;;;;5054896;28;20270;-70
2022/10/03 04:56:40;;;;;;;4.07;1.10;;;22.80;59.10;;;;;;5073830;28;20188;-71
2022/10/03 04:59:26;;;;;;;3.27;0.70;;;23.00;59.60;;;;;;5081509;28;20218;-73
2022/10/03 05:02:14;;;;;;;0.87;0.70;;;23.00;62.50;;;;;;5078218;28;20689;-70
2022/10/03 05:04:57;;;;;;;5.60;0.90;;;22.30;66.70;;;;;;5059026;28;20676;-71
2022/10/03 05:07:40;;;;;;;1.90;1.00;;;22.60;70.40;;;;;;5076581;28;20703;-70
2022/10/03 05:10:34;;;;;;;3.13;1.00;;;22.60;63.80;;;;;;5072478;28;20185;-71
2022/10/03 05:13:15;;;;;;;1.73;0.83;;;22.40;62.50;;;;;;5072592;28;20176;-70
2022/10/03 05:16:16;;;;;;;1.13;0.77;;;22.60;60.00;;;;;;5072517;28;20168;-71
2022/10/03 05:19:00;;;;;;;3.50;0.83;;;23.20;69.90;;;;;;5081761;28;20218;-71
2022/10/03 05:21:31;;;;;;;1.90;0.80;;;23.50;71.60;;;;;;5092446;28;20676;-71
2022/10/03 05:24:14;;;;;;;1.87;0.87;;;23.50;75.20;;;;;;5092619;28;20536;-71
2022/10/03 05:27:19;;;;;;;1.33;0.73;;;23.30;73.00;;;;;;5091753;28;20225;-71
2022/10/03 05:30:40;;;;;;;1.33;0.87;;;22.90;68.50;;;;;;5092634;28;20183;-71
2022/10/03 05:33:19;;;;;;;0.67;0.57;;;22.60;76.20;;;;;;4990675;28;20700;-70
2022/10/03 05:36:10;;;;;;;3.73;0.90;;;22.40;77.80;;;;;;5080683;28;20610;-70
2022/10/03 05:39:16;;;;;;;2.60;0.70;;;22.30;83.60;;;;;;5089199;28;20183;-70
2022/10/03 05:41:59;;;;;;;1.53;0.90;;;22.00;88.10;;;;;;5090517;28;20211;-70
2022/10/03 05:44:54;;;;;;;3.60;0.80;;;21.50;94.40;;;;;;5091459;28;20171;-71
2022/10/03 05:47:46;;;;;;;3.07;0.83;;;21.30;96.30;;;;;;5090550;28;20633;-71
2022/10/03 05:50:27;;;;;;;4.97;1.10;;;21.20;98.30;;;;;;5089528;28;20277;-71
2022/10/03 05:53:09;;;;;;;2.57;0.90;;;21.10;97.90;;;;;;5074100;28;20273;-72
2022/10/03 05:55:39;;;;;;;1.03;0.80;;;21.10;99.90;;;;;;5091852;28;20187;-71
2022/10/03 05:58:31;;;;;;;1.33;0.70;;;20.90;99.90;;;;;;5089522;28;20183;-71
2022/10/03 06:01:11;;;;;;;2.97;1.30;;;20.90;99.90;;;;;;5092116;28;20218;-71
2022/10/03 06:03:59;;;;;;;2.47;0.90;;;20.90;99.90;;;;;;5092090;28;20275;-72
2022/10/03 06:06:48;;;;;;;2.17;1.13;;;20.80;99.90;;;;;;5063087;28;20182;-71
2022/10/03 06:09:51;;;;;;;6.83;1.23;;;20.90;99.90;;;;;;5087128;28;20198;-71
2022/10/03 06:12:39;;;;;;;1.53;1.00;;;21.30;99.90;;;;;;5092020;28;20265;-71
2022/10/03 06:15:32;;;;;;;2.60;0.90;;;21.60;99.90;;;;;;5091494;28;20196;-71
2022/10/03 06:18:21;;;;;;;2.33;1.17;;;22.00;99.90;;;;;;5078115;28;20180;-70
2022/10/03 06:21:04;;;;;;;2.47;1.00;;;22.40;99.90;;;;;;5072598;28;20218;-71
2022/10/03 06:23:49;;;;;;;1.43;0.83;;;22.50;99.90;;;;;;5071560;28;20225;-71
2022/10/03 06:26:38;;;;;;;1.27;0.93;;;22.40;98.10;;;;;;5080823;28;20256;-71
2022/10/03 06:29:26;;;;;;;0.93;0.63;;;22.30;99.90;;;;;;5078526;28;20171;-71
2022/10/03 06:32:34;;;;;;;1.37;1.10;;;22.30;99.90;;;;;;5090799;28;20178;-71
2022/10/03 06:35:18;;;;;;;3.00;1.07;;;22.20;99.90;;;;;;5091184;28;20243;-71
2022/10/03 06:38:05;;;;;;;4.13;0.90;;;21.70;99.90;;;;;;5086419;28;20267;-71
2022/10/03 06:40:38;;;;;;;4.37;0.90;;;21.20;99.90;;;;;;5081322;28;20215;-72
2022/10/03 06:43:40;;;;;;;3.13;1.10;;;20.80;99.90;;;;;;5077521;28;20190;-71
2022/10/03 06:46:18;;;;;;;1.87;1.10;;;20.50;99.90;;;;;;5071464;28;20167;-71
2022/10/03 06:49:21;;;;;;;2.13;1.00;;;19.90;99.90;;;;;;5083433;28;20206;-70
2022/10/03 06:52:12;;;;;;;3.10;1.57;;;19.60;99.90;;;;;;5090581;28;20183;-69
2022/10/03 06:55:03;;;;;;;2.13;0.90;;;19.30;99.90;;;;;;5091140;28;20591;-71
2022/10/03 06:58:06;;;;;;;1.50;0.80;;;19.10;99.90;;;;;;5090295;28;20167;-70
2022/10/03 07:01:01;;;;;;;4.57;0.73;;;19.00;99.90;;;;;;5073129;28;20230;-71
2022/10/03 07:04:10;;;;;;;2.90;0.87;;;19.10;99.90;;;;;;5081933;28;20551;-71
2022/10/03 07:06:59;;;;;;;1.50;0.80;;;19.10;99.90;;;;;;4999412;28;20553;-71
2022/10/03 07:09:45;;;;;;;2.30;0.77;;;19.00;99.90;;;;;;5071121;28;20176;-72
2022/10/03 07:12:25;;;;;;;1.43;0.90;;;18.90;99.90;;;;;;5074813;28;20203;-72
2022/10/03 07:15:21;;;;;;;6.50;1.70;;;18.80;99.90;;;;;;5074868;28;20729;-72
2022/10/03 07:18:01;;;;;;;3.43;0.83;;;18.80;99.90;;;;;;5056811;28;20184;-72
2022/10/03 07:20:46;;;;;;;2.97;0.87;;;18.80;99.90;;;;;;5091796;28;20660;-72
2022/10/03 07:23:41;;;;;;;2.70;1.13;;;18.70;99.90;;;;;;5094980;28;20183;-72
2022/10/03 07:26:45;;;;;;;1.87;0.80;;;18.70;99.90;;;;;;5095029;28;20549;-71
2022/10/03 07:29:22;;;;;;;5.27;1.17;;;18.60;99.90;;;;;;5094937;28;20281;-70
2022/10/03 07:32:05;;;;;;;1.57;0.90;;;18.50;99.90;;;;;;5094769;28;20175;-70
2022/10/03 07:35:10;;;;;;;2.07;0.90;;;18.50;99.90;;;;;;5094510;28;20194;-70
2022/10/03 07:41:11;;;;;;;2.63;0.90;;;18.30;99.90;;;;;;5094730;28;20256;-72
2022/10/03 07:43:59;;;;;;;2.30;0.90;;;18.10;99.90;;;;;;5094691;28;20240;-72
2022/10/03 07:47:10;;;;;;;3.30;1.00;;;18.00;99.90;;;;;;5094482;28;20179;-72
2022/10/03 07:50:21;;;;;;;0.97;0.63;;;17.90;99.90;;;;;;5094610;28;20180;-70
2022/10/03 07:53:28;;;;;;;1.30;0.70;;;17.80;99.90;;;;;;5068842;28;20191;-71
2022/10/03 07:56:10;;;;;;;1.27;0.70;;;17.70;99.90;;;;;;5094170;28;20185;-71
2022/10/03 07:58:51;;;;;;;2.17;0.63;;;17.50;99.90;;;;;;5094163;28;20228;-72
2022/10/03 08:01:36;;;;;;;3.30;0.80;;;17.40;99.90;;;;;;5094278;28;20217;-71
2022/10/03 08:04:04;;;;;;;2.30;0.90;;;17.30;99.90;;;;;;5094184;28;20535;-72
2022/10/03 08:06:45;;;;;;;2.37;1.10;;;17.20;99.90;;;;;;5094102;28;20201;-72
2022/10/03 08:09:43;;;;;;;2.93;1.17;;;17.20;99.90;;;;;;5094156;28;20179;-69
2022/10/03 08:12:32;;;;;;;3.17;0.93;;;17.00;99.90;;;;;;5094094;28;20163;-71
2022/10/03 08:15:19;;;;;;;2.87;1.00;;;17.00;99.90;;;;;;5094150;28;20254;-71
2022/10/03 08:17:57;;;;;;;1.93;0.70;;;17.00;99.90;;;;;;5093548;28;20182;-70
2022/10/03 08:20:48;;;;;;;1.87;0.70;;;16.80;99.90;;;;;;5075077;28;20214;-71
2022/10/03 08:23:23;;;;;;;3.13;0.83;;;16.80;99.90;;;;;;5093134;28;20175;-72
2022/10/03 08:25:55;;;;;;;1.83;0.97;;;16.80;99.90;;;;;;5091219;28;20206;-72
2022/10/03 08:28:45;;;;;;;2.53;0.77;;;16.70;99.90;;;;;;5073659;28;20193;-72
2022/10/03 08:31:27;;;;;;;5.03;0.97;;;16.60;99.90;;;;;;5092742;28;20648;-71
2022/10/03 08:34:26;;;;;;;1.40;0.80;;;16.50;99.90;;;;;;5093641;28;20201;-71
2022/10/03 08:37:12;;;;;;;5.53;1.00;;;16.50;99.90;;;;;;5071009;28;20195;-72
2022/10/03 08:39:58;;;;;;;2.60;0.90;;;16.50;99.90;;;;;;5073445;28;20180;-71
2022/10/03 08:42:54;;;;;;;2.53;1.33;;;16.40;99.90;;;;;;5072637;28;20287;-72
2022/10/03 08:45:46;;;;;;;2.00;0.83;;;16.30;99.90;;;;;;5093638;28;20252;-72
2022/10/03 08:48:32;;;;;;;1.63;0.90;;;16.30;99.90;;;;;;5093486;28;20179;-71
2022/10/03 08:51:39;;;;;;;1.37;0.80;;;16.20;99.90;;;;;;5092662;28;20179;-71
2022/10/03 08:54:24;;;;;;;1.40;0.70;;;16.20;99.90;;;;;;5087965;28;20552;-71
2022/10/03 08:57:16;;;;;;;4.47;1.20;;;16.20;99.90;;;;;;5073037;28;20176;-70
2022/10/03 09:00:05;;;;;;;4.93;1.40;;;16.10;99.90;;;;;;5072830;28;20235;-71
2022/10/03 09:02:58;;;;;;;2.37;0.90;;;16.20;99.90;;;;;;5073299;28;20230;-72
2022/10/03 09:05:44;;;;;;;1.80;0.90;;;16.20;99.90;;;;;;5074115;28;20180;-72
2022/10/03 09:08:30;;;;;;;5.17;1.10;;;16.20;99.90;;;;;;5074025;28;20571;-72
2022/10/03 09:11:25;;;;;;;2.77;1.07;;;16.20;99.90;;;;;;5056567;28;20668;-71
2022/10/03 09:14:13;;;;;;;1.00;0.80;;;16.10;99.90;;;;;;5074220;28;20172;-72
2022/10/03 09:16:47;;;;;;;3.43;1.23;;;16.00;99.90;;;;;;5074151;28;20224;-71
2022/10/03 09:19:29;;;;;;;3.33;1.40;;;16.00;99.90;;;;;;5082185;28;20546;-71
2022/10/03 09:22:34;;;;;;;7.77;1.73;;;15.90;99.90;;;;;;5086147;28;20199;-71
2022/10/03 09:25:10;;;;;;;2.10;1.20;;;15.80;99.90;;;;;;5100596;28;20178;-74
2022/10/03 09:27:43;;;;;;;3.47;1.50;;;15.70;99.90;;;;;;5096950;28;20268;-73
2022/10/03 09:30:37;;;;;;;1.90;1.00;;;15.80;99.90;;;;;;5076235;28;20190;-70
2022/10/03 09:33:17;;;;;;;3.07;1.40;;;15.70;99.90;;;;;;5094112;28;20228;-72
2022/10/03 09:36:10;;;;;;;3.80;1.40;;;15.60;99.90;;;;;;5094156;28;20167;-72
2022/10/03 09:38:44;;;;;;;3.97;1.30;;;15.60;99.90;;;;;;5094019;28;20172;-72
2022/10/03 09:41:43;;;;;;;5.07;1.53;;;15.50;99.90;;;;;;5083120;28;20225;-72
2022/10/03 09:44:33;;;;;;;4.03;1.40;;;15.40;99.90;;;;;;5073680;28;20183;-70
2022/10/03 09:47:21;;;;;;;8.60;1.50;;;15.30;99.90;;;;;;5063011;28;20188;-71
2022/10/03 09:50:11;;;;;;;6.07;1.47;;;15.30;99.90;;;;;;5071042;28;20178;-71
2022/10/03 09:53:06;;;;;;;2.47;1.30;;;15.20;99.90;;;;;;5073523;28;20180;-71
2022/10/03 09:55:51;;;;;;;2.90;1.40;;;15.20;99.90;;;;;;5073295;28;20187;-72
2022/10/03 09:59:01;;;;;;;4.37;1.47;;;15.10;99.90;;;;;;5073286;28;20182;-72
2022/10/03 10:01:42;;;;;;;3.23;1.10;;;15.00;99.90;;;;;;5085547;28;20363;-72
2022/10/03 10:04:40;;;;;;;4.13;1.20;;;15.00;99.90;;;;;;5094057;28;20174;-72
2022/10/03 10:07:39;;;;;;;4.97;1.50;;;15.00;99.90;;;;;;5060960;28;20227;-72
2022/10/03 10:10:25;;;;;;;1.93;1.43;;;14.90;99.90;;;;;;5074144;28;20172;-72
2022/10/03 10:13:18;;;;;;;3.93;1.50;;;14.80;99.90;;;;;;5093577;28;20178;-72
2022/10/03 10:16:08;;;;;;;4.20;1.20;;;14.90;99.90;;;;;;5093805;28;20174;-72
2022/10/03 10:19:03;;;;;;;3.47;1.40;;;14.90;99.90;;;;;;5073061;28;20198;-72
2022/10/03 10:22:07;;;;;;;4.93;1.63;;;14.90;99.90;;;;;;5085523;28;20256;-72
2022/10/03 10:24:54;;;;;;;3.57;1.53;;;14.80;99.90;;;;;;5093124;28;20243;-72
2022/10/03 10:27:34;;;;;;;5.23;1.50;;;14.60;99.90;;;;;;5093558;28;20716;-72
2022/10/03 10:30:11;;;;;;;4.27;1.30;;;14.50;99.90;;;;;;5093535;28;20163;-72
2022/10/03 10:32:57;;;;;;;3.90;1.83;;;14.50;99.90;;;;;;5077737;28;20182;-72
2022/10/03 10:35:47;;;;;;;3.03;1.50;;;14.30;99.90;;;;;;5073064;28;20172;-72
2022/10/03 10:38:24;;;;;;;1.77;1.20;;;14.20;99.90;;;;;;5055091;28;20187;-72
2022/10/03 10:41:22;;;;;;;3.33;1.23;;;14.10;99.90;;;;;;5073028;28;20207;-72
2022/10/03 10:44:02;;;;;;;6.17;1.37;;;14.00;99.90;;;;;;5077862;28;20600;-72
2022/10/03 10:46:30;;;;;;;3.87;1.17;;;13.90;99.90;;;;;;5097034;28;20171;-72
2022/10/03 10:49:19;;;;;;;4.50;1.50;;;13.90;99.90;;;;;;5097725;28;20739;-72
2022/10/03 10:52:20;;;;;;;3.27;1.43;;;13.80;99.90;;;;;;5092793;28;20183;-72
2022/10/03 10:55:23;;;;;;;3.50;1.27;;;13.80;99.90;;;;;;5077059;28;20329;-72
2022/10/03 10:58:15;;;;;;;3.17;1.37;;;13.80;99.90;;;;;;5058705;28;20554;-71
2022/10/03 11:01:06;;;;;;;5.73;1.80;;;13.80;99.90;;;;;;5065450;28;20702;-72
2022/10/03 11:03:52;;;;;;;2.07;1.33;;;13.70;99.90;;;;;;5095456;28;20530;-71
2022/10/03 11:06:52;;;;;;;4.67;1.40;;;13.70;99.90;;;;;;5097293;28;20178;-71
2022/10/03 11:09:28;;;;;;;2.47;1.50;;;13.70;99.90;;;;;;5097621;28;20181;-72
2022/10/03 11:12:25;;;;;;;3.13;1.63;;;13.60;99.90;;;;;;5091439;28;20184;-71
2022/10/03 11:15:42;;;;;;;2.50;1.60;;;13.60;99.90;;;;;;5076336;28;20189;-71
2022/10/03 11:18:33;;;;;;;2.47;1.40;;;13.50;99.90;;;;;;5000500;28;20299;-72
2022/10/03 11:21:24;;;;;;;2.57;1.30;;;13.50;99.90;;;;;;5057077;28;20595;-71
2022/10/03 11:24:24;;;;;;;2.43;1.67;;;13.40;99.90;;;;;;5076664;28;20193;-72
2022/10/03 11:27:09;;;;;;;3.73;1.73;;;13.30;99.90;;;;;;5076444;28;20179;-71
2022/10/03 11:30:17;;;;;;;3.33;2.03;;;13.30;99.90;;;;;;5086295;28;20193;-71
2022/10/03 11:33:18;;;;;;;3.07;1.50;;;13.20;99.90;;;;;;5061896;28;20193;-71
2022/10/03 11:35:54;;;;;;;3.50;1.83;;;13.20;99.90;;;;;;5076266;28;20561;-71
2022/10/03 11:38:48;;;;;;;5.60;1.90;;;13.10;99.90;;;;;;5076351;28;20175;-71
2022/10/03 11:41:39;;;;;;;2.47;1.37;;;13.10;99.90;;;;;;5091602;28;20702;-71
2022/10/03 11:44:24;;;;;;;5.67;2.13;;;13.10;99.90;;;;;;5075839;28;20636;-71
2022/10/03 11:47:13;;;;;;;5.93;1.60;;;13.00;99.90;;;;;;5076153;28;20173;-71
2022/10/03 11:50:07;;;;;;;4.40;1.80;;;13.00;99.90;;;;;;5076022;28;20179;-71
2022/10/03 11:52:46;;;;;;;5.30;2.07;;;12.90;99.90;;;;;;5086579;28;20189;-72
2022/10/03 11:55:32;;;;;;;5.10;2.33;;;12.80;99.90;;;;;;5096077;28;20175;-71
2022/10/03 11:58:31;;;;;;;3.93;1.60;;;12.80;99.90;;;;;;5094353;28;20259;-71
2022/10/03 12:01:15;;;;;;;4.20;2.23;;;12.70;99.90;;;;;;5077725;28;20249;-72
2022/10/03 12:04:12;;;;;;;2.70;1.80;;;12.80;99.90;;;;;;5095449;28;20265;-72
2022/10/03 12:10:01;;;;;;;4.20;2.63;;;12.70;99.90;;;;;;5093725;28;20189;-71
2022/10/03 12:12:56;;;;;;;6.10;2.73;;;12.80;99.90;;;;;;5095389;28;20180;-71
2022/10/03 12:15:48;;;;;;;4.23;2.23;;;12.80;99.90;;;;;;5090039;28;20193;-71
2022/10/03 12:18:42;;;;;;;3.97;2.60;;;12.80;99.90;;;;;;5093404;28;20173;-71
2022/10/03 12:21:27;;;;;;;7.03;2.77;;;12.70;99.90;;;;;;5068022;28;20207;-71
2022/10/03 12:24:17;;;;;;;4.30;2.60;;;12.70;99.90;;;;;;5093444;28;20180;-71
2022/10/03 12:27:02;;;;;;;7.37;2.47;;;12.60;99.90;;;;;;5095522;28;20635;-71
2022/10/03 12:29:33;;;;;;;4.63;2.40;;;12.60;99.90;;;;;;5096189;28;20649;-71
2022/10/03 12:32:16;;;;;;;5.53;2.13;;;12.50;99.90;;;;;;5094515;28;20181;-71
2022/10/03 12:34:53;;;;;;;9.37;2.33;;;12.50;99.90;;;;;;5095418;28;20218;-72
2022/10/03 12:37:41;;;;;;;5.60;2.33;;;12.50;99.90;;;;;;5095248;28;20172;-71
2022/10/03 12:40:38;;;;;;;3.87;1.83;;;12.40;99.90;;;;;;5093305;28;20791;-71
2022/10/03 12:43:36;;;;;;;5.60;1.83;;;12.40;99.90;;;;;;5081819;28;20194;-71
2022/10/03 12:46:11;;;;;;;3.37;1.87;;;12.30;99.90;;;;;;5075052;28;20180;-71
2022/10/03 12:49:11;;;;;;;4.07;1.97;;;12.30;99.90;;;;;;5074934;28;20590;-71
2022/10/03 12:51:52;;;;;;;4.83;2.30;;;12.30;99.90;;;;;;5033918;28;20190;-71
2022/10/03 12:54:37;;;;;;;3.97;2.10;;;12.20;99.90;;;;;;5093898;28;20198;-71
2022/10/03 12:57:25;;;;;;;9.37;2.27;;;12.20;99.90;;;;;;5095283;28;20230;-71
2022/10/03 13:00:26;;;;;;;5.33;2.30;;;12.10;99.90;;;;;;5094652;28;20578;-71
2022/10/03 13:03:02;;;;;;;4.90;2.03;;;12.10;99.90;;;;;;5083757;28;20188;-71
2022/10/03 13:05:43;;;;;;;4.23;2.37;;;12.00;99.90;;;;;;5074730;28;20582;-71
2022/10/03 13:08:43;;;;;;;3.97;2.10;;;12.00;99.90;;;;;;5076502;28;20173;-71
2022/10/03 13:11:50;;;;;;;4.17;2.20;;;11.90;99.90;;;;;;5075326;28;20178;-71
2022/10/03 13:14:23;;;;;;;3.67;1.93;;;11.90;99.90;;;;;;5074390;28;20173;-71
2022/10/03 13:17:20;;;;;;;3.70;1.90;;;11.90;99.90;;;;;;5074520;28;20563;-71
2022/10/03 13:19:57;;;;;;;4.37;2.00;;;11.80;99.90;;;;;;5074037;28;20267;-71
2022/10/03 13:22:42;;;;;;;3.07;1.80;;;11.80;99.90;;;;;;5084162;28;20688;-71
2022/10/03 13:25:32;;;;;;;3.20;1.77;;;11.70;99.90;;;;;;5094421;28;20185;-71
2022/10/03 13:28:18;;;;;;;1.70;1.60;;;11.70;99.90;;;;;;5094842;28;20176;-71
2022/10/03 13:31:09;;;;;;;4.77;1.77;;;11.70;99.90;;;;;;5094533;28;20180;-71
2022/10/03 13:33:48;;;;;;;5.10;1.80;;;11.60;99.90;;;;;;5074009;28;20238;-72
2022/10/03 13:36:22;;;;;;;1.70;1.60;;;11.60;99.90;;;;;;5073717;28;20658;-72
2022/10/03 13:39:18;;;;;;;7.27;1.70;;;11.50;99.90;;;;;;5073846;28;20176;-72
2022/10/03 13:42:00;;;;;;;4.07;2.10;;;11.50;99.90;;;;;;5075081;28;20207;-71
2022/10/03 13:44:41;;;;;;;4.70;2.30;;;11.50;99.90;;;;;;5073579;28;20639;-71
2022/10/03 13:47:42;;;;;;;4.23;2.10;;;11.50;99.90;;;;;;5073759;28;20180;-71
2022/10/03 13:50:19;;;;;;;4.07;2.07;;;11.50;99.90;;;;;;5073780;28;20183;-72
2022/10/03 13:53:12;;;;;;;3.70;1.60;;;11.40;99.90;;;;;;5086402;28;20184;-72
2022/10/03 13:55:50;;;;;;;4.73;2.50;;;11.40;99.90;;;;;;5032390;28;20550;-71
2022/10/03 13:58:27;;;;;;;5.27;2.20;;;11.40;99.90;;;;;;5075133;28;20564;-71
2022/10/03 14:01:12;;;;;;;7.33;1.70;;;11.30;99.90;;;;;;5073623;28;20212;-72
2022/10/03 14:04:04;;;;;;;4.33;1.90;;;11.30;99.90;;;;;;5073439;28;20259;-72
2022/10/03 14:06:43;;;;;;;6.23;1.60;;;11.20;99.90;;;;;;5073404;28;20178;-72
2022/10/03 14:09:32;;;;;;;3.57;2.13;;;11.20;99.90;;;;;;5073362;28;20204;-72
2022/10/03 14:12:12;;;;;;;6.10;2.33;;;11.20;99.90;;;;;;5080808;28;20188;-72
2022/10/03 14:14:48;;;;;;;3.43;1.90;;;11.10;99.90;;;;;;5093587;28;20262;-72
2022/10/03 14:17:31;;;;;;;4.33;1.97;;;11.10;99.90;;;;;;5094078;28;20176;-72
2022/10/03 14:20:05;;;;;;;4.67;1.87;;;11.10;99.90;;;;;;5092794;28;20184;-71
2022/10/03 14:22:58;;;;;;;5.97;2.30;;;11.10;99.90;;;;;;5083820;28;20643;-72
2022/10/03 14:25:41;;;;;;;2.77;1.70;;;11.10;99.90;;;;;;5073260;28;20201;-72
2022/10/03 14:28:40;;;;;;;3.23;1.80;;;11.10;99.90;;;;;;5089674;28;20184;-72
2022/10/03 14:31:34;;;;;;;2.43;1.83;;;11.00;99.90;;;;;;5093604;28;20701;-71
2022/10/03 14:34:20;;;;;;;7.53;2.13;;;11.00;99.90;;;;;;5074144;28;20187;-72
2022/10/03 14:36:51;;;;;;;5.73;2.13;;;11.00;99.90;;;;;;5073798;28;20209;-71
2022/10/03 14:39:35;;;;;;;5.97;2.00;;;11.00;99.90;;;;;;5072908;28;20172;-71
2022/10/03 14:42:06;;;;;;;2.77;1.40;;;10.90;99.90;;;;;;5080081;28;20694;-71
2022/10/03 14:44:43;;;;;;;6.43;1.80;;;10.90;99.90;;;;;;5093300;28;20178;-71
2022/10/03 14:47:17;;;;;;;4.93;1.90;;;10.80;99.90;;;;;;5075310;28;20706;-71